sensor_id;sensor_type;location;lat;lon;timestamp;temperature;humidity
4354;DHT22;11018;51.258;6.806;2023-02-22T00:00:21;6.80;99.90
4354;DHT22;11018;51.258;6.806;2023-02-22T00:02:54;6.90;99.90
4354;DHT22;11018;51.258;6.806;2023-02-22T00:05:25;7.00;99.90
4354;DHT22;11018;51.258;6.806;2023-02-22T00:07:51;7.00;99.90
4354;DHT22;11018;51.258;6.806;2023-02-22T00:10:17;7.10;99.90
4354;DHT22;11018;51.258;6.806;2023-02-22T00:12:46;7.10;99.90
4354;DHT22;11018;51.258;6.806;2023-02-22T00:15:16;7.10;99.90
4354;DHT22;11018;51.258;6.806;2023-02-22T00:17:42;7.00;99.90
4354;DHT22;11018;51.258;6.806;2023-02-22T00:20:09;6.90;99.90
4354;DHT22;11018;51.258;6.806;2023-02-22T00:22:39;6.80;99.90
4354;DHT22;11018;51.258;6.806;2023-02-22T00:25:06;6.70;99.90
4354;DHT22;11018;51.258;6.806;2023-02-22T00:27:31;6.80;99.90
4354;DHT22;11018;51.258;6.806;2023-02-22T00:29:57;6.60;99.90
4354;DHT22;11018;51.258;6.806;2023-02-22T00:32:23;6.50;99.90
4354;DHT22;11018;51.258;6.806;2023-02-22T00:34:52;6.50;99.90
4354;DHT22;11018;51.258;6.806;2023-02-22T00:37:18;6.40;99.90
4354;DHT22;11018;51.258;6.806;2023-02-22T00:39:48;6.40;99.90
4354;DHT22;11018;51.258;6.806;2023-02-22T00:42:15;6.40;99.90
4354;DHT22;11018;51.258;6.806;2023-02-22T00:44:42;6.40;99.90
4354;DHT22;11018;51.258;6.806;2023-02-22T00:47:07;6.40;99.90
4354;DHT22;11018;51.258;6.806;2023-02-22T00:49:33;6.30;99.90
4354;DHT22;11018;51.258;6.806;2023-02-22T00:51:59;6.40;99.90
4354;DHT22;11018;51.258;6.806;2023-02-22T00:54:25;6.40;99.90
4354;DHT22;11018;51.258;6.806;2023-02-22T00:56:51;6.20;99.90
4354;DHT22;11018;51.258;6.806;2023-02-22T00:59:17;6.20;99.90
4354;DHT22;11018;51.258;6.806;2023-02-22T01:01:42;6.60;99.90
4354;DHT22;11018;51.258;6.806;2023-02-22T01:04:09;6.70;99.90
4354;DHT22;11018;51.258;6.806;2023-02-22T01:06:34;6.50;99.90
4354;DHT22;11018;51.258;6.806;2023-02-22T01:09:01;6.50;99.90
4354;DHT22;11018;51.258;6.806;2023-02-22T01:11:27;6.40;99.90
4354;DHT22;11018;51.258;6.806;2023-02-22T01:13:53;6.20;99.90
4354;DHT22;11018;51.258;6.806;2023-02-22T01:16:20;6.20;99.90
4354;DHT22;11018;51.258;6.806;2023-02-22T01:18:45;6.20;99.90
4354;DHT22;11018;51.258;6.806;2023-02-22T01:21:11;6.10;99.90
4354;DHT22;11018;51.258;6.806;2023-02-22T01:23:37;6.10;99.90
4354;DHT22;11018;51.258;6.806;2023-02-22T01:26:03;6.00;99.90
4354;DHT22;11018;51.258;6.806;2023-02-22T01:28:31;6.00;99.90
4354;DHT22;11018;51.258;6.806;2023-02-22T01:30:57;6.00;99.90
4354;DHT22;11018;51.258;6.806;2023-02-22T01:33:23;6.00;99.90
4354;DHT22;11018;51.258;6.806;2023-02-22T01:35:48;6.00;99.90
4354;DHT22;11018;51.258;6.806;2023-02-22T01:38:15;6.10;99.90
4354;DHT22;11018;51.258;6.806;2023-02-22T01:40:45;6.00;99.90
4354;DHT22;11018;51.258;6.806;2023-02-22T01:43:21;6.10;99.90
4354;DHT22;11018;51.258;6.806;2023-02-22T01:48:42;6.00;99.90
4354;DHT22;11018;51.258;6.806;2023-02-22T01:51:15;6.10;99.90
4354;DHT22;11018;51.258;6.806;2023-02-22T01:53:50;6.60;99.90
4354;DHT22;11018;51.258;6.806;2023-02-22T01:56:17;6.70;99.90
4354;DHT22;11018;51.258;6.806;2023-02-22T01:58:47;6.70;99.90
4354;DHT22;11018;51.258;6.806;2023-02-22T02:01:15;6.50;99.90
4354;DHT22;11018;51.258;6.806;2023-02-22T02:03:41;6.50;99.90
4354;DHT22;11018;51.258;6.806;2023-02-22T02:06:11;6.50;99.90
4354;DHT22;11018;51.258;6.806;2023-02-22T02:11:26;6.80;99.90
4354;DHT22;11018;51.258;6.806;2023-02-22T02:13:54;6.80;99.90
4354;DHT22;11018;51.258;6.806;2023-02-22T02:16:25;6.60;99.90
4354;DHT22;11018;51.258;6.806;2023-02-22T02:18:52;6.50;99.90
4354;DHT22;11018;51.258;6.806;2023-02-22T02:29:42;6.40;99.90
4354;DHT22;11018;51.258;6.806;2023-02-22T02:40:15;6.50;99.90
4354;DHT22;11018;51.258;6.806;2023-02-22T02:42:50;6.50;99.90
4354;DHT22;11018;51.258;6.806;2023-02-22T02:45:27;6.60;99.90
4354;DHT22;11018;51.258;6.806;2023-02-22T02:47:55;6.70;99.90
4354;DHT22;11018;51.258;6.806;2023-02-22T02:50:45;6.90;99.90
4354;DHT22;11018;51.258;6.806;2023-02-22T02:53:14;6.80;99.90
4354;DHT22;11018;51.258;6.806;2023-02-22T02:55:41;6.80;99.90
4354;DHT22;11018;51.258;6.806;2023-02-22T02:58:07;6.70;99.90
4354;DHT22;11018;51.258;6.806;2023-02-22T03:00:36;6.70;99.90
4354;DHT22;11018;51.258;6.806;2023-02-22T03:03:14;6.60;99.90
4354;DHT22;11018;51.258;6.806;2023-02-22T03:11:14;6.90;99.90
4354;DHT22;11018;51.258;6.806;2023-02-22T03:16:31;6.80;99.90
4354;DHT22;11018;51.258;6.806;2023-02-22T03:19:10;6.80;99.90
4354;DHT22;11018;51.258;6.806;2023-02-22T03:21:48;6.70;99.90
4354;DHT22;11018;51.258;6.806;2023-02-22T03:24:20;6.60;99.90
4354;DHT22;11018;51.258;6.806;2023-02-22T03:26:52;6.80;99.90
4354;DHT22;11018;51.258;6.806;2023-02-22T03:29:23;6.70;99.90
4354;DHT22;11018;51.258;6.806;2023-02-22T03:31:55;6.60;99.90
4354;DHT22;11018;51.258;6.806;2023-02-22T03:34:37;6.60;99.90
4354;DHT22;11018;51.258;6.806;2023-02-22T03:37:10;6.60;99.90
4354;DHT22;11018;51.258;6.806;2023-02-22T03:39:39;6.70;99.90
4354;DHT22;11018;51.258;6.806;2023-02-22T03:42:11;6.60;99.90
4354;DHT22;11018;51.258;6.806;2023-02-22T03:44:40;6.60;99.90
4354;DHT22;11018;51.258;6.806;2023-02-22T03:47:11;6.60;99.90
4354;DHT22;11018;51.258;6.806;2023-02-22T03:50:02;6.70;99.90
4354;DHT22;11018;51.258;6.806;2023-02-22T03:52:32;6.70;99.90
4354;DHT22;11018;51.258;6.806;2023-02-22T03:54:59;6.70;99.90
4354;DHT22;11018;51.258;6.806;2023-02-22T03:57:32;6.70;99.90
4354;DHT22;11018;51.258;6.806;2023-02-22T03:59:59;6.70;99.90
4354;DHT22;11018;51.258;6.806;2023-02-22T04:02:25;6.60;99.90
4354;DHT22;11018;51.258;6.806;2023-02-22T04:04:50;6.60;99.90
4354;DHT22;11018;51.258;6.806;2023-02-22T04:07:16;6.60;99.90
4354;DHT22;11018;51.258;6.806;2023-02-22T04:09:42;6.70;99.90
4354;DHT22;11018;51.258;6.806;2023-02-22T04:12:08;6.70;99.90
4354;DHT22;11018;51.258;6.806;2023-02-22T04:14:33;6.70;99.90
4354;DHT22;11018;51.258;6.806;2023-02-22T04:16:59;6.80;99.90
4354;DHT22;11018;51.258;6.806;2023-02-22T04:19:24;6.90;99.90
4354;DHT22;11018;51.258;6.806;2023-02-22T04:21:50;7.00;99.90
4354;DHT22;11018;51.258;6.806;2023-02-22T04:24:15;6.90;99.90
4354;DHT22;11018;51.258;6.806;2023-02-22T04:26:41;6.90;99.90
4354;DHT22;11018;51.258;6.806;2023-02-22T04:29:07;6.70;99.90
4354;DHT22;11018;51.258;6.806;2023-02-22T04:31:33;6.80;99.90
4354;DHT22;11018;51.258;6.806;2023-02-22T04:33:59;6.80;99.90
4354;DHT22;11018;51.258;6.806;2023-02-22T04:36:25;6.80;99.90
4354;DHT22;11018;51.258;6.806;2023-02-22T04:38:52;6.80;99.90
4354;DHT22;11018;51.258;6.806;2023-02-22T04:41:18;6.80;99.90
4354;DHT22;11018;51.258;6.806;2023-02-22T04:43:44;6.80;99.90
4354;DHT22;11018;51.258;6.806;2023-02-22T04:46:09;6.80;99.90
4354;DHT22;11018;51.258;6.806;2023-02-22T04:48:35;6.70;99.90
4354;DHT22;11018;51.258;6.806;2023-02-22T04:51:01;6.90;99.90
4354;DHT22;11018;51.258;6.806;2023-02-22T04:53:27;6.80;99.90
4354;DHT22;11018;51.258;6.806;2023-02-22T04:55:52;6.80;99.90
4354;DHT22;11018;51.258;6.806;2023-02-22T04:58:18;6.90;99.90
4354;DHT22;11018;51.258;6.806;2023-02-22T05:00:43;6.90;99.90
4354;DHT22;11018;51.258;6.806;2023-02-22T05:03:09;6.80;99.90
4354;DHT22;11018;51.258;6.806;2023-02-22T05:05:35;6.90;99.90
4354;DHT22;11018;51.258;6.806;2023-02-22T05:08:00;7.00;99.90
4354;DHT22;11018;51.258;6.806;2023-02-22T05:10:26;7.00;99.90
4354;DHT22;11018;51.258;6.806;2023-02-22T05:12:51;6.90;99.90
4354;DHT22;11018;51.258;6.806;2023-02-22T05:15:20;6.90;99.90
4354;DHT22;11018;51.258;6.806;2023-02-22T05:17:46;6.80;99.90
4354;DHT22;11018;51.258;6.806;2023-02-22T05:20:20;6.80;99.90
4354;DHT22;11018;51.258;6.806;2023-02-22T05:22:46;6.70;99.90
4354;DHT22;11018;51.258;6.806;2023-02-22T05:25:11;6.70;99.90
4354;DHT22;11018;51.258;6.806;2023-02-22T05:27:37;6.70;99.90
4354;DHT22;11018;51.258;6.806;2023-02-22T05:30:04;6.60;99.90
4354;DHT22;11018;51.258;6.806;2023-02-22T05:32:29;6.60;99.90
4354;DHT22;11018;51.258;6.806;2023-02-22T05:34:55;6.60;99.90
4354;DHT22;11018;51.258;6.806;2023-02-22T05:37:20;6.40;99.90
4354;DHT22;11018;51.258;6.806;2023-02-22T05:39:46;6.50;99.90
4354;DHT22;11018;51.258;6.806;2023-02-22T05:42:12;6.50;99.90
4354;DHT22;11018;51.258;6.806;2023-02-22T05:44:37;6.40;99.90
4354;DHT22;11018;51.258;6.806;2023-02-22T05:47:03;6.50;99.90
4354;DHT22;11018;51.258;6.806;2023-02-22T05:49:28;6.30;99.90
4354;DHT22;11018;51.258;6.806;2023-02-22T05:51:54;6.20;99.90
4354;DHT22;11018;51.258;6.806;2023-02-22T05:54:24;6.10;99.90
4354;DHT22;11018;51.258;6.806;2023-02-22T05:56:49;6.20;99.90
4354;DHT22;11018;51.258;6.806;2023-02-22T05:59:15;6.10;99.90
4354;DHT22;11018;51.258;6.806;2023-02-22T06:01:40;6.10;99.90
4354;DHT22;11018;51.258;6.806;2023-02-22T06:04:06;6.00;99.90
4354;DHT22;11018;51.258;6.806;2023-02-22T06:06:31;5.90;99.90
4354;DHT22;11018;51.258;6.806;2023-02-22T06:08:57;5.90;99.90
4354;DHT22;11018;51.258;6.806;2023-02-22T06:11:23;6.00;99.90
4354;DHT22;11018;51.258;6.806;2023-02-22T06:13:52;5.90;99.90
4354;DHT22;11018;51.258;6.806;2023-02-22T06:16:21;5.90;99.90
4354;DHT22;11018;51.258;6.806;2023-02-22T06:18:48;5.80;99.90
4354;DHT22;11018;51.258;6.806;2023-02-22T06:21:13;5.90;99.90
4354;DHT22;11018;51.258;6.806;2023-02-22T06:23:39;5.90;99.90
4354;DHT22;11018;51.258;6.806;2023-02-22T06:26:05;5.80;99.90
4354;DHT22;11018;51.258;6.806;2023-02-22T06:28:30;5.70;99.90
4354;DHT22;11018;51.258;6.806;2023-02-22T06:30:56;5.80;99.90
4354;DHT22;11018;51.258;6.806;2023-02-22T06:33:21;5.70;99.90
4354;DHT22;11018;51.258;6.806;2023-02-22T06:35:47;5.60;99.90
4354;DHT22;11018;51.258;6.806;2023-02-22T06:38:20;5.50;99.90
4354;DHT22;11018;51.258;6.806;2023-02-22T06:40:46;5.50;99.90
4354;DHT22;11018;51.258;6.806;2023-02-22T06:43:12;5.40;99.90
4354;DHT22;11018;51.258;6.806;2023-02-22T06:45:37;5.40;99.90
4354;DHT22;11018;51.258;6.806;2023-02-22T06:48:03;5.40;99.90
4354;DHT22;11018;51.258;6.806;2023-02-22T06:50:29;5.40;99.90
4354;DHT22;11018;51.258;6.806;2023-02-22T06:52:56;5.50;99.90
4354;DHT22;11018;51.258;6.806;2023-02-22T06:55:24;5.50;99.90
4354;DHT22;11018;51.258;6.806;2023-02-22T06:57:51;5.50;99.90
4354;DHT22;11018;51.258;6.806;2023-02-22T07:00:18;5.50;99.90
4354;DHT22;11018;51.258;6.806;2023-02-22T07:02:45;5.50;99.90
4354;DHT22;11018;51.258;6.806;2023-02-22T07:05:12;5.50;99.90
4354;DHT22;11018;51.258;6.806;2023-02-22T07:07:39;5.50;99.90
4354;DHT22;11018;51.258;6.806;2023-02-22T07:10:07;5.50;99.90
4354;DHT22;11018;51.258;6.806;2023-02-22T07:12:34;5.50;99.90
4354;DHT22;11018;51.258;6.806;2023-02-22T07:15:00;5.60;99.90
4354;DHT22;11018;51.258;6.806;2023-02-22T07:17:25;5.70;99.90
4354;DHT22;11018;51.258;6.806;2023-02-22T07:19:51;5.70;99.90
4354;DHT22;11018;51.258;6.806;2023-02-22T07:22:16;5.70;99.90
4354;DHT22;11018;51.258;6.806;2023-02-22T07:24:42;5.80;99.90
4354;DHT22;11018;51.258;6.806;2023-02-22T07:27:08;6.00;99.90
4354;DHT22;11018;51.258;6.806;2023-02-22T07:29:33;6.00;99.90
4354;DHT22;11018;51.258;6.806;2023-02-22T07:32:01;6.00;99.90
4354;DHT22;11018;51.258;6.806;2023-02-22T07:34:26;6.00;99.90
4354;DHT22;11018;51.258;6.806;2023-02-22T07:36:52;6.20;99.90
4354;DHT22;11018;51.258;6.806;2023-02-22T07:39:17;6.20;99.90
4354;DHT22;11018;51.258;6.806;2023-02-22T07:41:43;6.30;99.90
4354;DHT22;11018;51.258;6.806;2023-02-22T07:44:08;6.40;99.90
4354;DHT22;11018;51.258;6.806;2023-02-22T07:46:34;6.50;99.90
4354;DHT22;11018;51.258;6.806;2023-02-22T07:48:59;6.40;99.90
4354;DHT22;11018;51.258;6.806;2023-02-22T07:51:25;6.50;99.90
4354;DHT22;11018;51.258;6.806;2023-02-22T07:53:51;6.60;99.90
4354;DHT22;11018;51.258;6.806;2023-02-22T07:56:16;6.60;99.90
4354;DHT22;11018;51.258;6.806;2023-02-22T07:58:42;6.80;99.90
4354;DHT22;11018;51.258;6.806;2023-02-22T08:01:08;6.90;99.40
4354;DHT22;11018;51.258;6.806;2023-02-22T08:03:34;7.00;97.60
4354;DHT22;11018;51.258;6.806;2023-02-22T08:06:03;7.00;97.40
4354;DHT22;11018;51.258;6.806;2023-02-22T08:08:29;7.10;96.50
4354;DHT22;11018;51.258;6.806;2023-02-22T08:10:56;7.20;96.60
4354;DHT22;11018;51.258;6.806;2023-02-22T08:13:22;7.40;96.50
4354;DHT22;11018;51.258;6.806;2023-02-22T08:15:50;7.50;95.50
4354;DHT22;11018;51.258;6.806;2023-02-22T08:18:17;7.70;93.90
4354;DHT22;11018;51.258;6.806;2023-02-22T08:20:45;7.80;92.60
4354;DHT22;11018;51.258;6.806;2023-02-22T08:23:12;7.90;90.70
4354;DHT22;11018;51.258;6.806;2023-02-22T08:25:37;8.00;90.10
4354;DHT22;11018;51.258;6.806;2023-02-22T08:28:09;8.20;87.30
4354;DHT22;11018;51.258;6.806;2023-02-22T08:30:36;8.30;86.90
4354;DHT22;11018;51.258;6.806;2023-02-22T08:33:02;8.50;82.00
4354;DHT22;11018;51.258;6.806;2023-02-22T08:35:29;8.60;79.30
4354;DHT22;11018;51.258;6.806;2023-02-22T08:37:59;8.70;79.00
4354;DHT22;11018;51.258;6.806;2023-02-22T08:40:27;8.80;78.00
4354;DHT22;11018;51.258;6.806;2023-02-22T08:42:54;9.00;76.50
4354;DHT22;11018;51.258;6.806;2023-02-22T08:45:20;9.00;75.60
4354;DHT22;11018;51.258;6.806;2023-02-22T08:47:45;9.10;75.00
4354;DHT22;11018;51.258;6.806;2023-02-22T08:52:46;9.30;73.00
4354;DHT22;11018;51.258;6.806;2023-02-22T08:55:12;9.40;72.40
4354;DHT22;11018;51.258;6.806;2023-02-22T08:57:37;9.50;69.20
4354;DHT22;11018;51.258;6.806;2023-02-22T09:00:04;9.70;68.50
4354;DHT22;11018;51.258;6.806;2023-02-22T09:02:30;9.80;66.80
4354;DHT22;11018;51.258;6.806;2023-02-22T09:04:55;9.90;65.80
4354;DHT22;11018;51.258;6.806;2023-02-22T09:07:21;10.00;65.80
4354;DHT22;11018;51.258;6.806;2023-02-22T09:09:46;10.20;62.00
4354;DHT22;11018;51.258;6.806;2023-02-22T09:12:13;10.20;60.30
4354;DHT22;11018;51.258;6.806;2023-02-22T09:14:38;10.30;60.70
4354;DHT22;11018;51.258;6.806;2023-02-22T09:17:04;10.30;60.20
4354;DHT22;11018;51.258;6.806;2023-02-22T09:19:30;10.30;61.40
4354;DHT22;11018;51.258;6.806;2023-02-22T09:21:56;10.40;60.40
4354;DHT22;11018;51.258;6.806;2023-02-22T09:24:23;10.60;58.10
4354;DHT22;11018;51.258;6.806;2023-02-22T09:26:49;10.70;57.80
4354;DHT22;11018;51.258;6.806;2023-02-22T09:29:22;10.70;57.30
4354;DHT22;11018;51.258;6.806;2023-02-22T09:31:49;10.80;56.40
4354;DHT22;11018;51.258;6.806;2023-02-22T09:34:16;10.70;56.60
4354;DHT22;11018;51.258;6.806;2023-02-22T09:36:42;10.80;56.80
4354;DHT22;11018;51.258;6.806;2023-02-22T09:39:08;11.00;54.60
4354;DHT22;11018;51.258;6.806;2023-02-22T09:41:50;11.00;56.00
4354;DHT22;11018;51.258;6.806;2023-02-22T09:46:50;11.00;56.00
4354;DHT22;11018;51.258;6.806;2023-02-22T09:49:37;11.10;54.90
4354;DHT22;11018;51.258;6.806;2023-02-22T09:52:07;11.10;54.80
4354;DHT22;11018;51.258;6.806;2023-02-22T09:54:49;11.20;55.60
4354;DHT22;11018;51.258;6.806;2023-02-22T09:57:38;11.40;51.90
4354;DHT22;11018;51.258;6.806;2023-02-22T10:00:19;11.50;49.50
4354;DHT22;11018;51.258;6.806;2023-02-22T10:02:51;11.50;49.90
4354;DHT22;11018;51.258;6.806;2023-02-22T10:05:23;11.60;48.30
4354;DHT22;11018;51.258;6.806;2023-02-22T10:08:03;11.60;46.60
4354;DHT22;11018;51.258;6.806;2023-02-22T10:10:41;11.70;46.90
4354;DHT22;11018;51.258;6.806;2023-02-22T10:13:50;11.60;46.30
4354;DHT22;11018;51.258;6.806;2023-02-22T10:22:20;11.80;47.90
4354;DHT22;11018;51.258;6.806;2023-02-22T10:27:24;12.20;43.10
4354;DHT22;11018;51.258;6.806;2023-02-22T10:30:01;12.30;43.20
4354;DHT22;11018;51.258;6.806;2023-02-22T10:32:35;12.30;42.30
4354;DHT22;11018;51.258;6.806;2023-02-22T10:35:16;12.20;40.10
4354;DHT22;11018;51.258;6.806;2023-02-22T10:37:43;12.30;39.90
4354;DHT22;11018;51.258;6.806;2023-02-22T10:40:20;12.40;40.10
4354;DHT22;11018;51.258;6.806;2023-02-22T10:42:48;12.60;40.10
4354;DHT22;11018;51.258;6.806;2023-02-22T10:47:50;12.80;37.60
4354;DHT22;11018;51.258;6.806;2023-02-22T10:50:18;12.90;37.30
4354;DHT22;11018;51.258;6.806;2023-02-22T10:52:45;13.00;36.50
4354;DHT22;11018;51.258;6.806;2023-02-22T10:55:14;13.10;36.10
4354;DHT22;11018;51.258;6.806;2023-02-22T10:57:41;13.10;35.20
4354;DHT22;11018;51.258;6.806;2023-02-22T11:03:01;13.40;35.10
4354;DHT22;11018;51.258;6.806;2023-02-22T11:05:37;13.60;33.70
4354;DHT22;11018;51.258;6.806;2023-02-22T11:11:19;13.60;33.00
4354;DHT22;11018;51.258;6.806;2023-02-22T11:13:55;13.80;33.00
4354;DHT22;11018;51.258;6.806;2023-02-22T11:16:44;14.10;32.50
4354;DHT22;11018;51.258;6.806;2023-02-22T11:19:19;14.00;31.90
4354;DHT22;11018;51.258;6.806;2023-02-22T11:21:48;14.20;31.10
4354;DHT22;11018;51.258;6.806;2023-02-22T11:24:17;14.20;31.10
4354;DHT22;11018;51.258;6.806;2023-02-22T11:26:46;14.20;30.00
4354;DHT22;11018;51.258;6.806;2023-02-22T11:29:35;14.30;29.90
4354;DHT22;11018;51.258;6.806;2023-02-22T11:32:11;14.40;29.30
4354;DHT22;11018;51.258;6.806;2023-02-22T11:34:39;14.50;28.70
4354;DHT22;11018;51.258;6.806;2023-02-22T11:37:27;14.50;27.70
4354;DHT22;11018;51.258;6.806;2023-02-22T11:40:12;14.60;27.60
4354;DHT22;11018;51.258;6.806;2023-02-22T11:42:38;14.70;27.80
4354;DHT22;11018;51.258;6.806;2023-02-22T11:47:34;14.70;27.40
4354;DHT22;11018;51.258;6.806;2023-02-22T11:50:00;14.80;26.30
4354;DHT22;11018;51.258;6.806;2023-02-22T11:52:41;14.90;24.30
4354;DHT22;11018;51.258;6.806;2023-02-22T11:55:23;14.80;24.90
4354;DHT22;11018;51.258;6.806;2023-02-22T11:58:25;14.90;25.70
4354;DHT22;11018;51.258;6.806;2023-02-22T12:09:22;15.30;24.10
4354;DHT22;11018;51.258;6.806;2023-02-22T12:21:08;15.40;23.70
4354;DHT22;11018;51.258;6.806;2023-02-22T12:23:16;15.50;23.10
4354;DHT22;11018;51.258;6.806;2023-02-22T12:25:59;15.60;22.70
4354;DHT22;11018;51.258;6.806;2023-02-22T12:28:38;15.60;22.90
4354;DHT22;11018;51.258;6.806;2023-02-22T12:36:48;15.60;23.10
4354;DHT22;11018;51.258;6.806;2023-02-22T12:41:49;15.80;22.10
4354;DHT22;11018;51.258;6.806;2023-02-22T12:44:23;15.80;21.70
4354;DHT22;11018;51.258;6.806;2023-02-22T12:46:52;15.90;21.20
4354;DHT22;11018;51.258;6.806;2023-02-22T12:49:32;16.00;20.60
4354;DHT22;11018;51.258;6.806;2023-02-22T12:52:13;16.10;20.40
4354;DHT22;11018;51.258;6.806;2023-02-22T13:00:08;16.10;21.40
4354;DHT22;11018;51.258;6.806;2023-02-22T13:02:41;16.20;21.20
4354;DHT22;11018;51.258;6.806;2023-02-22T13:05:15;16.20;21.20
4354;DHT22;11018;51.258;6.806;2023-02-22T13:13:40;16.40;21.50
4354;DHT22;11018;51.258;6.806;2023-02-22T13:16:23;16.40;21.00
4354;DHT22;11018;51.258;6.806;2023-02-22T13:19:06;16.60;20.70
4354;DHT22;11018;51.258;6.806;2023-02-22T13:21:50;16.60;20.50
4354;DHT22;11018;51.258;6.806;2023-02-22T13:24:25;16.60;20.70
4354;DHT22;11018;51.258;6.806;2023-02-22T13:27:02;16.70;20.50
4354;DHT22;11018;51.258;6.806;2023-02-22T13:29:46;16.80;20.00
4354;DHT22;11018;51.258;6.806;2023-02-22T13:32:43;16.90;19.30
4354;DHT22;11018;51.258;6.806;2023-02-22T13:40:56;17.10;19.10
4354;DHT22;11018;51.258;6.806;2023-02-22T13:54:12;17.50;17.50
4354;DHT22;11018;51.258;6.806;2023-02-22T13:56:45;17.50;17.70
4354;DHT22;11018;51.258;6.806;2023-02-22T13:59:27;17.70;17.50
4354;DHT22;11018;51.258;6.806;2023-02-22T14:01:54;17.70;17.50
4354;DHT22;11018;51.258;6.806;2023-02-22T14:06:45;17.70;17.70
4354;DHT22;11018;51.258;6.806;2023-02-22T14:09:16;17.70;18.00
4354;DHT22;11018;51.258;6.806;2023-02-22T14:11:45;17.70;17.90
4354;DHT22;11018;51.258;6.806;2023-02-22T14:14:13;17.60;18.10
4354;DHT22;11018;51.258;6.806;2023-02-22T14:16:41;17.60;18.40
4354;DHT22;11018;51.258;6.806;2023-02-22T14:19:18;17.40;18.70
4354;DHT22;11018;51.258;6.806;2023-02-22T14:22:02;17.30;19.10
4354;DHT22;11018;51.258;6.806;2023-02-22T14:24:45;17.40;19.00
4354;DHT22;11018;51.258;6.806;2023-02-22T14:27:13;17.30;19.00
4354;DHT22;11018;51.258;6.806;2023-02-22T14:29:54;17.30;19.30
4354;DHT22;11018;51.258;6.806;2023-02-22T14:32:30;17.10;19.70
4354;DHT22;11018;51.258;6.806;2023-02-22T14:34:59;17.20;19.90
4354;DHT22;11018;51.258;6.806;2023-02-22T14:37:31;17.30;19.80
4354;DHT22;11018;51.258;6.806;2023-02-22T14:40:06;17.50;19.30
4354;DHT22;11018;51.258;6.806;2023-02-22T14:42:44;17.50;19.40
4354;DHT22;11018;51.258;6.806;2023-02-22T14:45:24;17.40;19.70
4354;DHT22;11018;51.258;6.806;2023-02-22T14:58:33;17.70;19.80
4354;DHT22;11018;51.258;6.806;2023-02-22T15:01:24;17.80;19.90
4354;DHT22;11018;51.258;6.806;2023-02-22T15:03:51;18.00;19.40
4354;DHT22;11018;51.258;6.806;2023-02-22T15:06:24;17.90;19.60
4354;DHT22;11018;51.258;6.806;2023-02-22T15:09:12;17.90;19.50
4354;DHT22;11018;51.258;6.806;2023-02-22T15:11:39;17.80;19.70
4354;DHT22;11018;51.258;6.806;2023-02-22T15:14:32;17.60;20.10
4354;DHT22;11018;51.258;6.806;2023-02-22T15:17:21;17.50;20.80
4354;DHT22;11018;51.258;6.806;2023-02-22T15:19:50;17.30;21.50
4354;DHT22;11018;51.258;6.806;2023-02-22T15:22:31;17.10;22.20
4354;DHT22;11018;51.258;6.806;2023-02-22T15:25:04;16.70;23.10
4354;DHT22;11018;51.258;6.806;2023-02-22T15:27:31;16.60;23.70
4354;DHT22;11018;51.258;6.806;2023-02-22T15:30:05;16.30;24.70
4354;DHT22;11018;51.258;6.806;2023-02-22T15:32:35;16.10;25.30
4354;DHT22;11018;51.258;6.806;2023-02-22T15:35:17;15.90;26.30
4354;DHT22;11018;51.258;6.806;2023-02-22T15:37:45;15.70;27.30
4354;DHT22;11018;51.258;6.806;2023-02-22T15:40:16;15.60;27.40
4354;DHT22;11018;51.258;6.806;2023-02-22T15:42:52;15.50;28.50
4354;DHT22;11018;51.258;6.806;2023-02-22T15:45:20;15.40;29.30
4354;DHT22;11018;51.258;6.806;2023-02-22T15:47:50;15.20;30.40
4354;DHT22;11018;51.258;6.806;2023-02-22T15:50:29;15.20;30.80
4354;DHT22;11018;51.258;6.806;2023-02-22T15:53:04;15.10;31.20
4354;DHT22;11018;51.258;6.806;2023-02-22T15:55:40;15.20;31.20
4354;DHT22;11018;51.258;6.806;2023-02-22T16:00:45;15.10;31.60
4354;DHT22;11018;51.258;6.806;2023-02-22T16:03:19;15.00;31.90
4354;DHT22;11018;51.258;6.806;2023-02-22T16:05:50;14.90;32.00
4354;DHT22;11018;51.258;6.806;2023-02-22T16:11:06;14.80;33.20
4354;DHT22;11018;51.258;6.806;2023-02-22T16:13:38;14.70;33.80
4354;DHT22;11018;51.258;6.806;2023-02-22T16:16:27;14.70;34.00
4354;DHT22;11018;51.258;6.806;2023-02-22T16:19:19;14.70;34.70
4354;DHT22;11018;51.258;6.806;2023-02-22T16:21:58;14.60;34.90
4354;DHT22;11018;51.258;6.806;2023-02-22T16:24:32;14.60;35.00
4354;DHT22;11018;51.258;6.806;2023-02-22T16:27:14;14.50;35.70
4354;DHT22;11018;51.258;6.806;2023-02-22T16:29:40;14.30;36.80
4354;DHT22;11018;51.258;6.806;2023-02-22T16:32:06;14.30;37.00
4354;DHT22;11018;51.258;6.806;2023-02-22T16:34:32;14.20;36.70
4354;DHT22;11018;51.258;6.806;2023-02-22T16:36:58;14.00;37.70
4354;DHT22;11018;51.258;6.806;2023-02-22T16:39:28;13.90;38.30
4354;DHT22;11018;51.258;6.806;2023-02-22T16:41:56;13.90;38.00
4354;DHT22;11018;51.258;6.806;2023-02-22T16:44:23;13.80;38.80
4354;DHT22;11018;51.258;6.806;2023-02-22T16:46:52;13.70;39.70
4354;DHT22;11018;51.258;6.806;2023-02-22T16:49:18;13.60;40.30
4354;DHT22;11018;51.258;6.806;2023-02-22T16:51:48;13.60;40.80
4354;DHT22;11018;51.258;6.806;2023-02-22T16:54:22;13.60;40.90
4354;DHT22;11018;51.258;6.806;2023-02-22T16:56:50;13.50;41.90
4354;DHT22;11018;51.258;6.806;2023-02-22T16:59:16;13.40;41.90
4354;DHT22;11018;51.258;6.806;2023-02-22T17:01:42;13.30;43.30
4354;DHT22;11018;51.258;6.806;2023-02-22T17:04:33;13.30;43.80
4354;DHT22;11018;51.258;6.806;2023-02-22T17:06:59;13.30;43.80
4354;DHT22;11018;51.258;6.806;2023-02-22T17:09:27;13.30;44.10
4354;DHT22;11018;51.258;6.806;2023-02-22T17:11:53;13.30;44.10
4354;DHT22;11018;51.258;6.806;2023-02-22T17:14:22;13.20;44.90
4354;DHT22;11018;51.258;6.806;2023-02-22T17:16:48;13.10;45.00
4354;DHT22;11018;51.258;6.806;2023-02-22T17:19:17;13.10;45.60
4354;DHT22;11018;51.258;6.806;2023-02-22T17:21:42;13.10;45.90
4354;DHT22;11018;51.258;6.806;2023-02-22T17:24:11;13.00;46.80
4354;DHT22;11018;51.258;6.806;2023-02-22T17:26:37;13.00;47.20
4354;DHT22;11018;51.258;6.806;2023-02-22T17:29:03;13.00;46.90
4354;DHT22;11018;51.258;6.806;2023-02-22T17:31:29;13.00;46.80
4354;DHT22;11018;51.258;6.806;2023-02-22T17:34:01;13.00;46.20
4354;DHT22;11018;51.258;6.806;2023-02-22T17:36:28;13.20;45.40
4354;DHT22;11018;51.258;6.806;2023-02-22T17:38:54;13.20;45.30
4354;DHT22;11018;51.258;6.806;2023-02-22T17:41:20;13.10;45.20
4354;DHT22;11018;51.258;6.806;2023-02-22T17:43:45;13.10;45.40
4354;DHT22;11018;51.258;6.806;2023-02-22T17:46:11;13.10;45.50
4354;DHT22;11018;51.258;6.806;2023-02-22T17:48:36;13.10;45.90
4354;DHT22;11018;51.258;6.806;2023-02-22T17:51:08;13.00;46.80
4354;DHT22;11018;51.258;6.806;2023-02-22T17:53:35;12.90;47.50
4354;DHT22;11018;51.258;6.806;2023-02-22T17:56:05;12.90;47.90
4354;DHT22;11018;51.258;6.806;2023-02-22T17:58:30;12.90;47.50
4354;DHT22;11018;51.258;6.806;2023-02-22T18:00:56;12.80;48.40
4354;DHT22;11018;51.258;6.806;2023-02-22T18:03:24;12.70;49.70
4354;DHT22;11018;51.258;6.806;2023-02-22T18:05:52;12.60;50.40
4354;DHT22;11018;51.258;6.806;2023-02-22T18:08:19;12.60;50.70
4354;DHT22;11018;51.258;6.806;2023-02-22T18:10:46;12.70;50.80
4354;DHT22;11018;51.258;6.806;2023-02-22T18:13:15;12.60;50.90
4354;DHT22;11018;51.258;6.806;2023-02-22T18:15:45;12.60;51.30
4354;DHT22;11018;51.258;6.806;2023-02-22T18:18:11;12.70;50.90